Colcord, WV (25048)

7:45 AM EST on March 02, 2015 (GMT -0500)
Fairdale | Change Station
CLOSE
Current Station
Personal Weather Station
Location: Lester, WV
Elevation: 1938 ft
Nearby Weather Stations

Elev 1938 ft 37.74 °N, 81.35 °W | Updated 2 seconds ago

Overcast
Overcast
33.3 °F
Feels Like 33 °F
N
0.0
Wind Variable Wind from NW
Gusts 0.0 mph

Today
High -- | Low -- °F
--% Chance of Precip.
Yesterday
High -- | Low -- °F
Precip. -- in
6:56 AM 6:20 PM
Waxing Gibbous, 91% visible
Pressure 30.31 in
Visibility 1.8 miles
Clouds Mostly Cloudy 600 ft
Overcast 1000 ft
Windchill 33 °F
Dew Point 32 °F
Humidity 94%
Rainfall 0.13 in
Snow Depth Not available.
UV 0 out of 12
Pollen 1.60 out of 12
Air Quality Not available.
Flu Activity Not available.
SPECI KBKW 021240Z AUTO 33011KT 1 3/4SM -SN BR BKN006 OVC010 M01/M02 A3031 RMK AO2 RAB1155E1156UPB1156E10FZRAB10E18SNE1155B18 P0000 I1001 T10061017

More Conditions Fewer Conditions

Pressure 30.31 in
Visibility 1.8 miles
Clouds Mostly Cloudy 600 ft
Overcast 1000 ft
Windchill 33 °F
Dew Point 32 °F
Humidity 94%
Rainfall 0.13 in
Snow Depth Not available.
UV 0 out of 12
Pollen 1.60 out of 12
Air Quality Not available.
Flu Activity Not available.
SPECI KBKW 021240Z AUTO 33011KT 1 3/4SM -SN BR BKN006 OVC010 M01/M02 A3031 RMK AO2 RAB1155E1156UPB1156E10FZRAB10E18SNE1155B18 P0000 I1001 T10061017

More Conditions Fewer Conditions

10-Day Weather Forecast

Almanac

Astronomy

Mar. 02, 2015 Rise Set
Actual Time
Civil Twilight
Nautical Twilight
Astronomical Twilight
Moon
Length of Visible Light
Length of Day
Tomorrow will be .
, % of the Moon is Illuminated

Today's Extremes

State Highs State Lows

Community

WunderPhotos

Upload Photos

1,801,772 photos uploaded!

WunderBlogs® & News

Nearby

Air Quality

  Air Quality AQ Index Pollutant
Not available.

Snow Depth

Station Depth Elevation

Earthquake Activity

City Distance Mag. Time & Date
Minimum magnitude displayed is 2.5.

Coastal Water Temperatures

Place Temperature

Nearby Weather Stations